Time;durP1;ratioP1;P1;durP2;ratioP2;P2;SDS_P1;SDS_P2;PMS_P1;PMS_P2;Temp;Humidity;BMP_temperature;BMP_pressure;BME280_temperature;BME280_humidity;BME280_pressure;Samples;Min_cycle;Max_cycle;Signal;HPM_P1;HPM_P2
2023/04/04 00:01:59;;;;;;;1.95;1.88;;;;;;;6.99;100.00;62722.72;5023231;28;20265;-77
2023/04/04 00:04:26;;;;;;;1.88;1.88;;;;;;;6.95;100.00;62713.00;5038087;28;20202;-76
2023/04/04 00:06:53;;;;;;;2.10;2.05;;;;;;;7.06;100.00;62723.84;5046601;28;20395;-76
2023/04/04 00:09:20;;;;;;;2.40;1.80;;;;;;;7.01;100.00;62719.72;5046226;28;20491;-76
2023/04/04 00:11:49;;;;;;;2.58;2.47;;;;;;;7.00;100.00;62718.16;5046688;28;20249;-75
2023/04/04 00:14:16;;;;;;;2.22;2.13;;;;;;;6.97;100.00;62717.59;5045920;28;20360;-76
2023/04/04 00:16:43;;;;;;;2.13;2.03;;;;;;;6.98;100.00;62719.16;5027852;28;20241;-77
2023/04/04 00:19:16;;;;;;;2.47;2.38;;;;;;;7.07;100.00;62727.94;5039691;28;20212;-77
2023/04/04 00:21:43;;;;;;;2.40;2.30;;;;;;;7.07;100.00;62725.91;5046226;28;20264;-78
2023/04/04 00:24:11;;;;;;;2.50;2.40;;;;;;;7.16;100.00;62736.69;5043881;28;20198;-77
2023/04/04 00:26:37;;;;;;;2.70;2.60;;;;;;;7.13;100.00;62733.59;5045984;28;20221;-76
2023/04/04 00:29:05;;;;;;;2.90;2.80;;;;;;;7.11;100.00;62726.97;5047162;28;20206;-76
2023/04/04 00:31:33;;;;;;;3.47;3.30;;;;;;;7.07;100.00;62727.41;5047832;28;20348;-76
2023/04/04 00:34:00;;;;;;;3.90;3.70;;;;;;;7.09;100.00;62730.00;5034347;28;20345;-76
2023/04/04 00:36:27;;;;;;;3.70;3.50;;;;;;;7.09;100.00;62730.00;5033569;28;20300;-75
2023/04/04 00:38:53;;;;;;;3.72;3.53;;;;;;;7.07;100.00;62727.41;5045569;28;20240;-75
2023/04/04 00:41:21;;;;;;;4.10;3.80;;;;;;;7.06;100.00;62729.41;5044503;28;20209;-75
2023/04/04 00:43:48;;;;;;;4.10;3.90;;;;;;;7.19;100.00;62737.25;5029253;28;20199;-75
2023/04/04 00:46:17;;;;;;;4.60;4.30;;;;;;;7.18;100.00;62738.75;5038256;28;20202;-76
2023/04/04 00:48:45;;;;;;;4.57;4.18;;;;;;;7.21;100.00;62736.78;5029484;28;20199;-77
2023/04/04 00:51:12;;;;;;;4.40;4.10;;;;;;;7.40;100.00;62761.97;5031758;28;20213;-76
2023/04/04 00:53:40;;;;;;;4.13;3.83;;;;;;;7.21;100.00;62742.38;5028158;28;20195;-77
2023/04/04 00:56:09;;;;;;;4.78;4.40;;;;;;;7.19;100.00;62740.31;5034801;28;20295;-76
2023/04/04 00:58:36;;;;;;;5.32;4.93;;;;;;;7.25;100.00;62746.50;5032125;28;20199;-76
2023/04/04 01:01:04;;;;;;;4.97;4.57;;;;;;;7.25;100.00;62745.97;5046550;28;20240;-75
2023/04/04 01:03:34;;;;;;;5.20;4.82;;;;;;;7.21;100.00;62739.84;5044801;28;20222;-77
2023/04/04 01:06:01;;;;;;;4.72;4.43;;;;;;;7.30;100.00;62748.59;5046354;28;20232;-76
2023/04/04 01:08:30;;;;;;;5.55;5.05;;;;;;;7.29;100.00;62745.03;5046934;28;20222;-76
2023/04/04 01:10:58;;;;;;;5.72;5.22;;;;;;;7.36;100.00;62752.25;5046022;28;20228;-76
2023/04/04 01:13:25;;;;;;;6.47;5.35;;;;;;;7.25;100.00;62745.97;5031055;28;20246;-76
2023/04/04 01:15:52;;;;;;;4.93;4.50;;;;;;;7.20;100.00;62738.28;5026291;28;20297;-76
2023/04/04 01:18:22;;;;;;;6.22;5.07;;;;;;;7.10;100.00;62731.00;5040853;28;20328;-78
2023/04/04 01:20:57;;;;;;;5.97;4.18;;;;;;;7.10;100.00;62728.47;5030473;28;20218;-75
2023/04/04 01:23:30;;;;;;;2.58;2.38;;;;;;;6.91;100.00;62711.41;5046063;28;20244;-78
2023/04/04 01:26:03;;;;;;;2.38;2.28;;;;;;;6.81;100.00;62698.56;5039578;28;20273;-78
2023/04/04 01:28:30;;;;;;;2.30;2.10;;;;;;;6.65;100.00;62684.59;5048162;28;20286;-78
2023/04/04 01:31:00;;;;;;;1.40;1.30;;;;;;;6.57;100.00;62671.28;5042214;28;20212;-77
2023/04/04 01:33:32;;;;;;;1.65;1.55;;;;;;;6.48;100.00;62667.59;5047588;28;20214;-78
2023/04/04 01:36:05;;;;;;;3.13;2.75;;;;;;;6.49;100.00;62661.03;5038880;28;20610;-77
2023/04/04 01:38:41;;;;;;;1.10;1.10;;;;;;;6.62;100.00;62679.50;5035694;28;20229;-78
2023/04/04 01:41:12;;;;;;;1.20;1.20;;;;;;;6.51;100.00;62665.63;5047172;28;20205;-77
2023/04/04 01:43:39;;;;;;;1.30;1.10;;;;;;;6.48;100.00;62665.06;5046073;28;20230;-77
2023/04/04 01:46:06;;;;;;;0.98;0.98;;;;;;;6.46;100.00;62665.00;5029819;28;20215;-78
2023/04/04 01:48:33;;;;;;;0.90;0.90;;;;;;;6.40;100.00;62664.38;5034042;28;20416;-77
2023/04/04 01:51:01;;;;;;;0.98;0.98;;;;;;;6.34;100.00;62650.09;5048058;28;20213;-79
2023/04/04 01:53:28;;;;;;;0.88;0.88;;;;;;;6.39;100.00;62653.25;5045297;28;20316;-76
2023/04/04 01:55:55;;;;;;;1.75;1.00;;;;;;;6.32;100.00;62645.50;5042133;28;20305;-77
2023/04/04 01:58:23;;;;;;;0.95;0.88;;;;;;;6.38;100.00;62657.28;5027714;28;20222;-78
2023/04/04 02:00:50;;;;;;;0.60;0.60;;;;;;;6.37;100.00;62658.75;5041813;28;20209;-77
2023/04/04 02:03:17;;;;;;;0.60;0.60;;;;;;;6.40;100.00;62656.28;5045412;28;20214;-76
2023/04/04 02:05:45;;;;;;;0.38;0.38;;;;;;;6.25;100.00;62638.81;5041888;28;20240;-76
2023/04/04 02:08:12;;;;;;;0.50;0.50;;;;;;;6.26;100.00;62644.91;5038624;28;20235;-77
2023/04/04 02:10:39;;;;;;;0.70;0.70;;;;;;;6.23;100.00;62636.25;5025727;28;20410;-76
2023/04/04 02:13:06;;;;;;;0.70;0.70;;;;;;;6.16;100.00;62627.00;5036409;28;20583;-78
2023/04/04 02:15:35;;;;;;;0.52;0.52;;;;;;;6.18;100.00;62633.63;5034134;28;20208;-77
2023/04/04 02:18:02;;;;;;;0.68;0.68;;;;;;;6.21;100.00;62637.22;5036987;28;20226;-78
2023/04/04 02:20:29;;;;;;;0.70;0.70;;;;;;;6.17;100.00;62635.63;5027711;28;20202;-77
2023/04/04 02:22:56;;;;;;;0.65;0.65;;;;;;;6.16;100.00;62634.56;5036046;28;20289;-79
2023/04/04 02:25:24;;;;;;;0.80;0.80;;;;;;;6.20;100.00;62638.72;5037400;28;20206;-77
2023/04/04 02:27:51;;;;;;;1.10;1.10;;;;;;;6.15;100.00;62633.56;5044607;28;20226;-77
2023/04/04 02:30:19;;;;;;;0.88;0.88;;;;;;;6.14;100.00;62626.97;5039000;28;20195;-77
2023/04/04 02:32:47;;;;;;;0.70;0.70;;;;;;;6.21;100.00;62634.69;5025876;28;20223;-78
2023/04/04 02:35:15;;;;;;;0.85;0.85;;;;;;;6.29;100.00;62645.47;5046376;28;20275;-77
2023/04/04 02:37:44;;;;;;;0.90;0.90;;;;;;;6.26;100.00;62642.38;5027893;28;20293;-77
2023/04/04 02:40:12;;;;;;;1.42;0.88;;;;;;;6.32;100.00;62651.06;5026012;28;20218;-77
2023/04/04 02:42:42;;;;;;;1.02;1.00;;;;;;;6.26;100.00;62639.84;5027377;28;20431;-77
2023/04/04 02:45:10;;;;;;;0.73;0.73;;;;;;;6.30;100.00;62649.00;5035539;28;20244;-76
2023/04/04 02:47:38;;;;;;;0.65;0.65;;;;;;;6.31;100.00;62650.06;5046949;28;20213;-78
2023/04/04 02:50:08;;;;;;;2.25;0.80;;;;;;;6.31;100.00;62647.53;5046665;28;20263;-76
2023/04/04 02:52:35;;;;;;;0.73;0.73;;;;;;;6.30;100.00;62648.50;5044436;28;20501;-78
2023/04/04 02:55:03;;;;;;;0.90;0.90;;;;;;;6.43;100.00;62662.44;5036606;28;20495;-76
2023/04/04 02:57:30;;;;;;;0.90;0.90;;;;;;;6.39;100.00;62653.25;5026071;28;20227;-79
2023/04/04 02:59:57;;;;;;;0.77;0.77;;;;;;;6.48;100.00;62665.06;5026938;28;20195;-76
2023/04/04 03:02:24;;;;;;;0.75;0.75;;;;;;;6.53;100.00;62667.16;5045090;28;20273;-78
2023/04/04 03:04:51;;;;;;;1.20;1.20;;;;;;;6.62;100.00;62681.50;5044952;28;20205;-77
2023/04/04 03:07:21;;;;;;;1.50;1.40;;;;;;;6.65;100.00;62682.06;5045085;28;20582;-77
2023/04/04 03:09:48;;;;;;;1.42;1.33;;;;;;;6.74;100.00;62691.88;5044714;28;20202;-79
2023/04/04 03:12:15;;;;;;;1.70;1.60;;;;;;;6.73;100.00;62690.31;5046525;28;20525;-77
2023/04/04 03:14:42;;;;;;;1.17;1.17;;;;;;;6.82;100.00;62697.06;5044107;28;20264;-78
2023/04/04 03:17:13;;;;;;;2.20;2.10;;;;;;;6.91;100.00;62706.88;5044620;28;20280;-75
2023/04/04 03:19:40;;;;;;;1.73;1.65;;;;;;;6.82;100.00;62697.59;5044133;28;20206;-78
2023/04/04 03:22:07;;;;;;;1.50;1.50;;;;;;;6.82;100.00;62704.66;5045984;28;20281;-77
2023/04/04 03:24:36;;;;;;;2.25;1.60;;;;;;;6.85;100.00;62702.69;5032037;28;20241;-77
2023/04/04 03:27:04;;;;;;;1.65;1.63;;;;;;;6.88;100.00;62703.78;5044151;28;20221;-78
2023/04/04 03:29:31;;;;;;;1.75;1.65;;;;;;;6.89;100.00;62711.88;5045034;28;20227;-79
2023/04/04 03:31:58;;;;;;;1.60;1.60;;;;;;;7.00;100.00;62716.16;5042160;28;20218;-76
2023/04/04 03:34:26;;;;;;;1.42;1.40;;;;;;;6.92;100.00;62710.44;5025607;28;20202;-77
2023/04/04 03:36:52;;;;;;;1.95;1.63;;;;;;;6.84;100.00;62699.66;5031476;28;20241;-78
2023/04/04 03:39:19;;;;;;;1.38;1.35;;;;;;;6.97;100.00;62720.13;5045661;28;20194;-77
2023/04/04 03:41:48;;;;;;;3.38;1.63;;;;;;;7.03;100.00;62721.78;5039421;28;20215;-77
2023/04/04 03:44:14;;;;;;;1.20;1.20;;;;;;;7.07;100.00;62728.44;5025505;28;20222;-77
2023/04/04 03:46:41;;;;;;;1.40;1.30;;;;;;;7.04;100.00;62722.28;5042750;28;20425;-78
2023/04/04 03:49:08;;;;;;;1.50;1.50;;;;;;;7.05;100.00;62725.84;5043740;28;20530;-77
2023/04/04 03:51:35;;;;;;;4.05;1.38;;;;;;;7.13;100.00;62734.09;5035762;28;20249;-79
2023/04/04 03:54:02;;;;;;;1.10;1.00;;;;;;;7.17;100.00;62737.72;5024335;28;20348;-79
2023/04/04 03:56:31;;;;;;;3.22;2.25;;;;;;;7.15;100.00;62735.66;5025983;28;20226;-78
2023/04/04 03:59:00;;;;;;;1.60;1.52;;;;;;;7.13;100.00;62731.56;5025670;28;20194;-78
2023/04/04 04:01:26;;;;;;;1.88;1.77;;;;;;;7.22;100.00;62737.81;5031499;28;20194;-76
2023/04/04 04:03:53;;;;;;;1.88;1.77;;;;;;;7.11;100.00;62734.56;5043600;28;20206;-77
2023/04/04 04:06:20;;;;;;;1.55;1.48;;;;;;;7.18;100.00;62736.72;5044737;28;20403;-78
2023/04/04 04:08:47;;;;;;;2.08;1.98;;;;;;;7.26;100.00;62744.47;5043924;28;20509;-78
2023/04/04 04:11:14;;;;;;;1.52;1.42;;;;;;;7.26;100.00;62741.94;5043717;28;20213;-77
2023/04/04 04:13:41;;;;;;;2.47;2.38;;;;;;;7.28;100.00;62749.59;5032754;28;20198;-79
2023/04/04 04:16:10;;;;;;;3.53;3.13;;;;;;;7.31;100.00;62749.63;5031449;28;20225;-77
2023/04/04 04:18:37;;;;;;;4.38;4.07;;;;;;;7.31;100.00;62750.16;5029810;28;20210;-77
2023/04/04 04:21:03;;;;;;;6.28;5.65;;;;;;;7.30;100.00;62748.59;5031720;28;20198;-77
2023/04/04 04:23:31;;;;;;;7.55;5.10;;;;;;;7.37;100.00;62758.38;5043662;28;20218;-76
2023/04/04 04:25:58;;;;;;;5.75;5.10;;;;;;;7.33;100.00;62751.69;5041197;28;20248;-78
2023/04/04 04:28:25;;;;;;;6.68;5.03;;;;;;;7.29;100.00;62745.56;5042755;28;20230;-77
2023/04/04 04:30:52;;;;;;;6.22;5.63;;;;;;;7.30;100.00;62749.13;5033204;28;20483;-77
2023/04/04 04:33:20;;;;;;;6.45;5.30;;;;;;;7.34;100.00;62753.25;5024230;28;20218;-78
2023/04/04 04:35:48;;;;;;;6.63;4.85;;;;;;;7.36;100.00;62755.31;5028182;28;20240;-79
2023/04/04 04:38:15;;;;;;;5.70;5.13;;;;;;;7.36;100.00;62752.25;4984178;28;20305;-78
2023/04/04 04:40:42;;;;;;;5.18;4.68;;;;;;;7.36;100.00;62757.31;5018717;28;20471;-77
2023/04/04 04:43:09;;;;;;;6.80;4.88;;;;;;;7.32;100.00;62753.72;5024360;28;20543;-79
2023/04/04 04:45:36;;;;;;;5.65;5.18;;;;;;;7.26;100.00;62744.47;5036061;28;20265;-78
2023/04/04 04:48:03;;;;;;;5.45;5.05;;;;;;;7.35;100.00;62754.28;5041798;28;20264;-77
2023/04/04 04:50:31;;;;;;;5.82;5.32;;;;;;;7.40;100.00;62764.50;5044657;28;20510;-76
2023/04/04 04:52:58;;;;;;;6.20;5.60;;;;;;;7.54;100.00;62771.34;5046743;28;20226;-77
2023/04/04 04:55:25;;;;;;;5.63;4.90;;;;;;;7.58;100.00;62780.56;5045787;28;20248;-77
2023/04/04 04:57:52;;;;;;;6.03;5.50;;;;;;;7.50;100.00;62774.84;5047367;28;20237;-78
2023/04/04 05:00:21;;;;;;;6.43;5.35;;;;;;;7.40;100.00;62758.94;5046228;28;20889;-77
2023/04/04 05:02:48;;;;;;;7.97;5.65;;;;;;;7.49;100.00;62768.22;5046922;28;20406;-76
2023/04/04 05:05:16;;;;;;;7.40;6.70;;;;;;;7.41;100.00;62762.47;5046810;28;20202;-77
2023/04/04 05:07:46;;;;;;;6.68;6.00;;;;;;;7.54;100.00;62770.84;5045096;28;20225;-77
2023/04/04 05:10:13;;;;;;;9.63;7.32;;;;;;;7.66;100.00;62786.25;5047803;28;20438;-77
2023/04/04 05:12:43;;;;;;;9.38;8.27;;;;;;;7.69;100.00;62791.38;5046786;28;20594;-76
2023/04/04 05:15:11;;;;;;;9.48;8.32;;;;;;;7.76;100.00;62798.63;5045579;28;20317;-77
2023/04/04 05:17:39;;;;;;;10.00;6.97;;;;;;;7.88;100.00;62806.47;5043077;28;20312;-77
2023/04/04 05:20:07;;;;;;;6.32;5.72;;;;;;;7.94;100.00;62817.19;5046122;28;20225;-76
2023/04/04 05:22:34;;;;;;;9.52;7.15;;;;;;;7.42;100.00;62758.97;5045788;28;20222;-76
2023/04/04 05:25:03;;;;;;;7.60;6.63;;;;;;;7.27;100.00;62750.56;5046374;28;20232;-77
2023/04/04 05:27:30;;;;;;;7.53;6.82;;;;;;;7.41;100.00;62757.41;5045631;28;20292;-77
2023/04/04 05:29:57;;;;;;;8.45;6.63;;;;;;;7.32;100.00;62748.66;5046378;28;20271;-77
2023/04/04 05:32:24;;;;;;;6.10;5.57;;;;;;;7.60;100.00;62779.56;5046124;28;20507;-77
2023/04/04 05:34:51;;;;;;;9.15;7.03;;;;;;;7.78;100.00;62798.66;5046285;28;20228;-79
2023/04/04 05:37:18;;;;;;;8.50;7.60;;;;;;;7.79;100.00;62797.16;5045840;28;20381;-76
2023/04/04 05:39:45;;;;;;;8.52;7.38;;;;;;;7.86;100.00;62811.47;5046175;28;20198;-76
2023/04/04 05:42:13;;;;;;;9.90;7.55;;;;;;;8.01;100.00;62819.34;5046438;28;20237;-77
2023/04/04 05:44:40;;;;;;;11.23;6.97;;;;;;;8.14;100.00;62838.34;5045481;28;20422;-76
2023/04/04 05:47:07;;;;;;;6.50;5.88;;;;;;;8.05;100.00;62826.03;5028643;28;20222;-77
2023/04/04 05:49:34;;;;;;;6.57;5.90;;;;;;;8.05;100.00;62823.50;5038896;28;20195;-78
2023/04/04 05:52:02;;;;;;;6.13;5.45;;;;;;;8.15;100.00;62833.81;5038894;28;20229;-77
2023/04/04 05:54:28;;;;;;;6.95;5.60;;;;;;;8.09;100.00;62828.13;5034115;28;20198;-76
2023/04/04 05:56:55;;;;;;;6.18;5.57;;;;;;;8.25;100.00;62846.19;5037377;28;20591;-76
2023/04/04 05:59:24;;;;;;;7.88;5.95;;;;;;;8.08;100.00;62829.63;5025909;28;20390;-77
2023/04/04 06:01:50;;;;;;;5.60;5.10;;;;;;;8.12;100.00;62836.31;5027976;28;20206;-77
2023/04/04 06:04:17;;;;;;;7.63;6.80;;;;;;;7.88;100.00;62814.06;5027553;28;20229;-79
2023/04/04 06:06:46;;;;;;;7.90;6.93;;;;;;;7.68;100.00;62785.81;5028910;28;20234;-76
2023/04/04 06:09:13;;;;;;;11.07;8.15;;;;;;;7.78;100.00;62801.19;5025269;28;20216;-76
2023/04/04 06:11:39;;;;;;;8.95;8.05;;;;;;;7.91;100.00;62817.16;5027479;28;20238;-76
2023/04/04 06:14:07;;;;;;;11.68;8.55;;;;;;;7.83;100.00;62800.78;5042620;28;20233;-77
2023/04/04 06:16:36;;;;;;;11.05;8.23;;;;;;;8.00;100.00;62823.91;5034144;28;20217;-75
2023/04/04 06:19:03;;;;;;;14.05;10.82;;;;;;;8.09;100.00;62825.09;5033115;28;20233;-75
2023/04/04 06:21:30;;;;;;;16.55;13.25;;;;;;;8.26;100.00;62852.28;5036952;28;20283;-76
2023/04/04 06:23:56;;;;;;;15.63;13.15;;;;;;;8.27;100.00;62848.75;5032270;28;20195;-76
2023/04/04 06:26:25;;;;;;;19.50;15.32;;;;;;;8.23;100.00;62847.16;5031757;28;20207;-76
2023/04/04 06:28:53;;;;;;;21.70;15.40;;;;;;;8.24;100.00;62845.16;5035835;28;20701;-78
2023/04/04 06:31:20;;;;;;;18.88;14.23;;;;;;;8.28;100.00;62854.88;5035955;28;20202;-77
2023/04/04 06:33:48;;;;;;;20.92;16.05;;;;;;;8.38;100.00;62862.66;5031750;28;20519;-75
2023/04/04 06:36:15;;;;;;;21.60;15.63;;;;;;;8.26;100.00;62845.19;5036245;28;20241;-77
2023/04/04 06:38:42;;;;;;;18.45;14.07;;;;;;;8.59;100.00;62881.31;5039298;28;20268;-76
2023/04/04 06:41:09;;;;;;;18.13;13.52;;;;;;;8.66;100.00;62886.00;5045711;28;20273;-76
2023/04/04 06:43:36;;;;;;;17.23;12.25;;;;;;;8.54;100.00;62881.22;5045346;28;20201;-77
2023/04/04 06:46:04;;;;;;;15.10;10.15;;;;;;;8.35;100.00;62857.03;5044499;28;20424;-74
2023/04/04 06:48:31;;;;;;;13.55;10.77;;;;;;;8.44;100.00;62870.88;5044018;28;20226;-75
2023/04/04 06:51:00;;;;;;;11.63;8.95;;;;;;;8.15;100.00;62836.88;5046429;28;20269;-76
2023/04/04 06:53:27;;;;;;;13.00;9.50;;;;;;;8.30;100.00;62851.34;5045975;28;20221;-76
2023/04/04 06:55:54;;;;;;;12.10;8.23;;;;;;;8.04;100.00;62825.50;5036631;28;20199;-74
2023/04/04 06:58:21;;;;;;;10.68;7.90;;;;;;;7.84;100.00;62806.88;5032013;28;20290;-76
2023/04/04 07:00:48;;;;;;;4.63;4.22;;;;;;;7.05;100.00;62723.31;5039980;28;20198;-75
2023/04/04 07:03:15;;;;;;;6.45;5.38;;;;;;;6.38;100.00;62654.75;5044218;28;20230;-76
2023/04/04 07:05:42;;;;;;;3.45;3.25;;;;;;;6.12;100.00;62629.94;5047384;28;20262;-76
2023/04/04 07:08:11;;;;;;;2.70;2.60;;;;;;;6.11;100.00;62631.94;5048537;28;20228;-77
2023/04/04 07:10:38;;;;;;;2.10;2.00;;;;;;;5.98;100.00;62616.03;5044915;28;20277;-77
2023/04/04 07:13:05;;;;;;;1.52;1.52;;;;;;;5.88;100.00;62605.72;5044651;28;20686;-76
2023/04/04 07:15:32;;;;;;;1.95;1.83;;;;;;;5.69;100.00;62581.06;5043977;28;20204;-77
2023/04/04 07:17:59;;;;;;;2.45;1.55;;;;;;;5.65;100.00;62580.00;5044243;28;20299;-76
2023/04/04 07:20:27;;;;;;;1.40;1.40;;;;;;;5.57;100.00;62573.78;5043679;28;20232;-77
2023/04/04 07:22:54;;;;;;;1.40;1.40;;;;;;;5.50;100.00;62564.03;5044073;28;20337;-76
2023/04/04 07:25:22;;;;;;;1.83;1.27;;;;;;;5.18;100.00;62534.09;5044357;28;20209;-75
2023/04/04 07:27:49;;;;;;;1.25;1.25;;;;;;;5.18;100.00;62528.53;5045761;28;20217;-75
2023/04/04 07:30:17;;;;;;;1.55;1.45;;;;;;;5.16;100.00;62534.06;5043386;28;20206;-75
2023/04/04 07:32:44;;;;;;;1.67;1.58;;;;;;;5.16;100.00;62532.03;5038328;28;20210;-76
2023/04/04 07:35:10;;;;;;;3.08;1.60;;;;;;;5.31;100.00;62544.97;5043425;28;20253;-76
2023/04/04 07:37:38;;;;;;;1.80;1.70;;;;;;;5.35;100.00;62548.59;5040557;28;20668;-76
2023/04/04 07:40:08;;;;;;;1.45;1.35;;;;;;;5.25;100.00;62538.78;5043182;28;20213;-77
2023/04/04 07:42:36;;;;;;;1.70;1.60;;;;;;;5.19;100.00;62535.13;5041383;28;20220;-75
2023/04/04 07:45:04;;;;;;;4.13;2.80;;;;;;;5.24;100.00;62537.25;5043855;28;20201;-77
2023/04/04 07:47:31;;;;;;;1.95;1.85;;;;;;;5.24;100.00;62540.28;5043242;28;20222;-74
2023/04/04 07:49:58;;;;;;;1.95;1.42;;;;;;;5.15;100.00;62527.97;5043893;28;20204;-76
2023/04/04 07:52:25;;;;;;;0.90;0.90;;;;;;;4.91;100.00;62503.25;5044066;28;20224;-75
2023/04/04 07:54:52;;;;;;;0.70;0.70;;;;;;;4.81;100.00;62493.47;5042937;28;20205;-77
2023/04/04 07:57:19;;;;;;;0.88;0.88;;;;;;;4.82;100.00;62496.50;5044319;28;20224;-76
2023/04/04 07:59:48;;;;;;;1.08;0.98;;;;;;;4.67;100.00;62481.59;5044222;28;20208;-74
2023/04/04 08:02:15;;;;;;;0.98;0.98;;;;;;;4.58;100.00;62469.81;5043301;28;20301;-75
2023/04/04 08:04:42;;;;;;;0.90;0.90;;;;;;;4.31;100.00;62444.53;5044243;28;20230;-76
2023/04/04 08:07:09;;;;;;;0.80;0.80;;;;;;;4.29;100.00;62443.00;5033906;28;20221;-78
2023/04/04 08:09:36;;;;;;;0.68;0.68;;;;;;;4.22;100.00;62435.28;5042109;28;20292;-76
2023/04/04 08:12:04;;;;;;;1.10;0.95;;;;;;;4.13;100.00;62424.00;5035253;28;20226;-75
2023/04/04 08:14:31;;;;;;;0.73;0.73;;;;;;;4.16;100.00;62429.09;5024810;28;20229;-75
2023/04/04 08:17:00;;;;;;;2.50;1.10;;;;;;;4.33;100.00;62446.59;5024896;28;20218;-75
2023/04/04 08:19:27;;;;;;;1.00;1.00;;;;;;;4.28;100.00;62441.47;5024682;28;20222;-75
2023/04/04 08:21:54;;;;;;;1.23;1.20;;;;;;;4.24;100.00;62432.81;5042936;28;20233;-76
2023/04/04 08:24:21;;;;;;;1.75;1.17;;;;;;;4.35;100.00;62446.66;5046133;28;20194;-78
2023/04/04 08:26:48;;;;;;;0.93;0.93;;;;;;;4.30;100.00;62438.97;5048849;28;20213;-79
2023/04/04 08:29:15;;;;;;;1.10;1.10;;;;;;;4.31;100.00;62440.03;5048972;28;20382;-79
2023/04/04 08:31:43;;;;;;;0.77;0.77;;;;;;;4.21;100.00;62426.69;5051651;28;20285;-81
2023/04/04 08:34:11;;;;;;;1.20;1.10;;;;;;;4.29;100.00;62440.47;5050673;28;20407;-80
2023/04/04 08:36:38;;;;;;;0.80;0.80;;;;;;;4.06;100.00;62416.81;5051485;28;20414;-79
2023/04/04 08:39:05;;;;;;;1.40;1.40;;;;;;;4.04;100.00;62414.25;5050390;28;20229;-79
2023/04/04 08:41:34;;;;;;;0.80;0.80;;;;;;;3.91;100.00;62400.88;5050893;28;20282;-79
2023/04/04 08:44:04;;;;;;;0.93;0.93;;;;;;;3.96;100.00;62408.53;5049844;28;20194;-79
2023/04/04 08:46:31;;;;;;;1.13;1.10;;;;;;;3.88;100.00;62397.78;5049251;28;20226;-79
2023/04/04 08:48:59;;;;;;;1.48;0.95;;;;;;;3.93;100.00;62400.41;5049963;28;20202;-79
2023/04/04 08:51:30;;;;;;;7.72;1.27;;;;;;;3.85;100.00;62392.19;5051403;28;20214;-78
2023/04/04 08:53:59;;;;;;;1.42;1.35;;;;;;;3.81;100.00;62388.06;5050934;28;20192;-79
2023/04/04 08:56:27;;;;;;;0.90;0.90;;;;;;;3.76;100.00;62393.50;5047788;28;20468;-78
2023/04/04 08:58:54;;;;;;;1.30;1.20;;;;;;;3.73;100.00;62382.34;5047550;28;20244;-78
2023/04/04 09:01:22;;;;;;;1.40;1.30;;;;;;;3.73;100.00;62385.38;5053097;28;20194;-80
2023/04/04 09:03:50;;;;;;;1.00;1.00;;;;;;;3.73;100.00;62380.34;5050105;28;20201;-79
2023/04/04 09:06:18;;;;;;;1.38;1.35;;;;;;;3.81;100.00;62393.09;5050610;28;20198;-77
2023/04/04 09:08:48;;;;;;;1.10;1.10;;;;;;;3.88;100.00;62403.34;5049573;28;20201;-79
2023/04/04 09:11:16;;;;;;;1.00;1.00;;;;;;;3.88;100.00;62400.81;5051258;28;20197;-79
2023/04/04 09:13:45;;;;;;;1.05;1.05;;;;;;;3.79;100.00;62388.53;5047419;28;20210;-79
2023/04/04 09:16:12;;;;;;;1.30;1.20;;;;;;;3.52;100.00;62364.28;5049322;28;20201;-79
2023/04/04 09:18:39;;;;;;;1.33;1.23;;;;;;;3.61;100.00;62370.03;5050238;28;20222;-80
2023/04/04 09:21:10;;;;;;;1.33;1.30;;;;;;;3.50;100.00;62359.22;5049622;28;20206;-78
2023/04/04 09:23:37;;;;;;;1.13;1.13;;;;;;;3.38;100.00;62344.38;5049731;28;20202;-80
2023/04/04 09:26:06;;;;;;;0.95;0.95;;;;;;;3.42;100.00;62351.50;5048744;28;20206;-80
2023/04/04 09:28:33;;;;;;;0.95;0.95;;;;;;;3.39;100.00;62350.41;5049473;28;20225;-80
2023/04/04 09:31:04;;;;;;;1.65;1.55;;;;;;;3.45;100.00;62354.06;5050917;28;20198;-80
2023/04/04 09:33:33;;;;;;;0.80;0.80;;;;;;;3.30;100.00;62338.66;5050210;28;20218;-81
2023/04/04 09:36:03;;;;;;;1.17;1.17;;;;;;;3.43;100.00;62350.00;5047454;28;20541;-79
2023/04/04 09:38:31;;;;;;;1.42;1.33;;;;;;;3.15;100.00;62321.22;5047619;28;20697;-79
2023/04/04 09:40:58;;;;;;;1.73;1.63;;;;;;;3.61;100.00;62370.03;5049398;28;20210;-79
2023/04/04 09:43:29;;;;;;;1.95;1.85;;;;;;;3.76;100.00;62388.47;5048412;28;20225;-79
2023/04/04 09:45:56;;;;;;;1.73;1.63;;;;;;;3.90;100.00;62404.88;5050714;28;20200;-78
2023/04/04 09:48:27;;;;;;;3.70;1.75;;;;;;;4.21;100.00;62429.72;5048889;28;20558;-79
2023/04/04 09:50:54;;;;;;;1.63;1.52;;;;;;;4.31;100.00;62442.03;5040905;28;20258;-78
2023/04/04 09:53:22;;;;;;;2.08;1.98;;;;;;;4.16;100.00;62426.59;5049048;28;20222;-80
2023/04/04 09:55:53;;;;;;;1.40;1.40;;;;;;;4.32;100.00;62443.56;5049946;28;20205;-80
2023/04/04 09:58:26;;;;;;;1.33;1.33;;;;;;;4.37;100.00;62446.19;5044041;28;20225;-80
2023/04/04 10:00:55;;;;;;;2.72;2.10;;;;;;;4.24;100.00;62434.81;5048002;28;20202;-80
2023/04/04 10:03:23;;;;;;;1.42;1.33;;;;;;;4.11;100.00;62418.91;5041845;28;20222;-81
2023/04/04 10:05:56;;;;;;;1.13;1.13;;;;;;;4.03;100.00;62415.72;5040038;28;20194;-80
2023/04/04 10:08:24;;;;;;;0.80;0.80;;;;;;;4.13;100.00;62421.50;5040864;28;20222;-82
2023/04/04 10:10:52;;;;;;;1.05;1.05;;;;;;;4.00;100.00;62410.66;5031306;28;20267;-82
2023/04/04 10:13:27;;;;;;;1.17;1.17;;;;;;;4.12;100.00;62425.00;5047391;28;20230;-79
2023/04/04 10:15:56;;;;;;;1.65;1.60;;;;;;;4.00;100.00;62412.66;5037949;28;20228;-80
2023/04/04 10:18:25;;;;;;;1.60;1.50;;;;;;;3.82;100.00;62397.16;5034772;28;20241;-79
2023/04/04 10:20:53;;;;;;;1.42;1.42;;;;;;;3.86;100.00;62393.19;5047532;28;20202;-77
2023/04/04 10:23:22;;;;;;;1.42;1.38;;;;;;;3.48;100.00;62357.16;5034204;28;20630;-78
2023/04/04 10:25:49;;;;;;;2.20;2.10;;;;;;;3.56;100.00;62365.38;5040302;28;20274;-77
2023/04/04 10:28:17;;;;;;;1.70;1.70;;;;;;;3.81;100.00;62393.09;5040318;28;20603;-78
2023/04/04 10:30:52;;;;;;;2.47;1.98;;;;;;;3.88;100.00;62398.31;5046315;28;20248;-79
2023/04/04 10:33:26;;;;;;;2.38;1.95;;;;;;;3.80;100.00;62390.06;5042297;28;20237;-78
2023/04/04 10:35:56;;;;;;;1.13;1.13;;;;;;;3.64;100.00;62370.59;5044517;28;20194;-78
2023/04/04 10:38:28;;;;;;;2.22;2.13;;;;;;;3.69;100.00;62381.28;5044168;28;20441;-77
2023/04/04 10:40:59;;;;;;;1.52;1.42;;;;;;;3.74;100.00;62383.38;5047240;28;20205;-78
2023/04/04 10:43:27;;;;;;;1.95;1.85;;;;;;;3.81;100.00;62395.63;5047787;28;20289;-77
2023/04/04 10:46:01;;;;;;;2.20;2.05;;;;;;;3.76;100.00;62385.44;5047091;28;20198;-77
2023/04/04 10:48:29;;;;;;;1.38;1.38;;;;;;;3.62;100.00;62374.06;5047042;28;20403;-76
2023/04/04 10:50:57;;;;;;;1.95;1.85;;;;;;;3.55;100.00;62361.84;5045830;28;20316;-77
2023/04/04 10:53:24;;;;;;;1.67;1.63;;;;;;;3.53;100.00;62359.78;5045791;28;20218;-76
2023/04/04 10:55:52;;;;;;;1.33;1.33;;;;;;;3.47;100.00;62359.16;5045950;28;20198;-77
2023/04/04 10:58:21;;;;;;;1.80;1.80;;;;;;;3.60;100.00;62366.47;5044783;28;20222;-76
2023/04/04 11:00:53;;;;;;;1.58;1.52;;;;;;;3.59;100.00;62367.97;5047862;28;20236;-76
2023/04/04 11:03:23;;;;;;;1.83;1.73;;;;;;;3.63;100.00;62370.06;5046949;28;20225;-77
2023/04/04 11:05:54;;;;;;;1.55;1.45;;;;;;;3.61;100.00;62368.00;5044021;28;20266;-76
2023/04/04 11:08:24;;;;;;;2.25;2.15;;;;;;;3.53;100.00;62362.81;5038902;28;20218;-76
2023/04/04 11:10:52;;;;;;;1.33;1.33;;;;;;;3.51;100.00;62362.75;5045391;28;20261;-77
2023/04/04 11:13:21;;;;;;;2.15;2.05;;;;;;;3.54;100.00;62363.84;5044335;28;20229;-75
2023/04/04 11:15:56;;;;;;;2.25;2.05;;;;;;;3.62;100.00;62368.53;5034587;28;20202;-77
2023/04/04 11:18:48;;;;;;;3.45;2.00;;;;;;;3.47;100.00;62358.63;5025760;28;20248;-76
2023/04/04 11:21:17;;;;;;;2.30;2.20;;;;;;;3.59;100.00;62370.97;5025024;28;20202;-75
2023/04/04 11:24:13;;;;;;;2.72;2.53;;;;;;;3.63;100.00;62372.06;5044292;28;20202;-76
2023/04/04 11:26:44;;;;;;;2.90;2.80;;;;;;;3.67;100.00;62376.19;5045708;28;20241;-74
2023/04/04 11:29:21;;;;;;;2.17;2.08;;;;;;;3.53;100.00;62357.25;5045380;28;20190;-75
2023/04/04 11:31:49;;;;;;;3.13;2.83;;;;;;;3.52;100.00;62359.25;5044370;28;20245;-76
2023/04/04 11:34:30;;;;;;;2.15;2.05;;;;;;;3.43;100.00;62355.03;5044174;28;20378;-75
2023/04/04 11:37:00;;;;;;;2.72;2.55;;;;;;;3.34;100.00;62345.78;5044307;28;20428;-75